Jijoca de Jericoacoara, Brazil
Current Conditions -  °F | °C
As of 2:00 PM on Wednesday 26 Nov 2014 (Local Time) from SBPB Reporting Station
Clear Clear  
Wind Chill: 93°   Ceiling: Unl
Heat Index: 105°   Visibility: 6mi
Dew Point: 75°   Wind: 22mph
Humidity: 56%   Direction: 80°E
Pressure: 29.77"   Gusts: NA
Location:  2.9°S, 40.44°W
Report Text: SBPB 261700Z 08019KT CAVOK 34/24 Q1008
Loading
Personal Weather Stations






























Interactive Weather Map New forecast layout! Learn more

10-Day Weather Forecast

Advertisements
Track Severe Weather on mobile